Time;durP1;ratioP1;P1;durP2;ratioP2;P2;SDS_P1;SDS_P2;PMS_P1;PMS_P2;Temp;Humidity;BMP_temperature;BMP_pressure;BME280_temperature;BME280_humidity;BME280_pressure;Samples;Min_cycle;Max_cycle;Signal;HPM_P1;HPM_P2
2022/10/14 00:00:32;;;;;;;31.95;18.45;;;;;;;11.75;100.00;99067.13;4989198;28;20034;-54
2022/10/14 00:03:28;;;;;;;30.00;18.63;;;;;;;11.56;100.00;99061.34;4988362;28;20044;-51
2022/10/14 00:06:16;;;;;;;31.67;17.58;;;;;;;11.62;100.00;99061.88;4988326;28;20129;-53
2022/10/14 00:09:07;;;;;;;31.60;18.38;;;;;;;11.84;100.00;99056.00;4993412;28;20061;-54
2022/10/14 00:11:52;;;;;;;30.58;18.05;;;;;;;11.67;100.00;99059.78;4988046;28;20135;-54
2022/10/14 00:14:37;;;;;;;30.20;16.98;;;;;;;11.72;100.00;99060.28;4988807;28;20077;-52
2022/10/14 00:17:22;;;;;;;31.13;18.60;;;;;;;11.67;100.00;99057.16;4991292;28;20489;-52
2022/10/14 00:20:09;;;;;;;35.63;19.05;;;;;;;11.53;100.00;99058.09;4991056;28;20471;-53
2022/10/14 00:22:53;;;;;;;29.00;17.08;;;;;;;11.56;100.00;99057.88;4991747;28;20488;-50
2022/10/14 00:25:39;;;;;;;32.38;17.58;;;;;;;11.52;100.00;99056.44;4988484;28;20035;-50
2022/10/14 00:28:23;;;;;;;39.13;18.98;;;;;;;11.51;100.00;99054.72;4990182;28;20038;-53
2022/10/14 00:31:09;;;;;;;33.83;18.88;;;;;;;11.64;100.00;99052.09;4985519;28;20077;-52
2022/10/14 00:33:53;;;;;;;35.72;18.63;;;;;;;11.37;100.00;99053.91;4979616;28;20083;-53
2022/10/14 00:36:39;;;;;;;32.70;17.92;;;;;;;11.36;100.00;99054.00;4986216;28;20133;-52
2022/10/14 00:39:30;;;;;;;33.55;18.48;;;;;;;11.37;100.00;99055.66;4989815;28;20049;-52
2022/10/14 00:42:15;;;;;;;33.33;18.30;;;;;;;11.21;100.00;99051.47;4973874;28;20117;-52
2022/10/14 00:45:10;;;;;;;33.00;18.55;;;;;;;11.05;100.00;99046.41;4991791;28;20050;-53
2022/10/14 00:47:55;;;;;;;32.63;18.42;;;;;;;11.10;100.00;99046.91;4986015;28;20145;-52
2022/10/14 00:50:44;;;;;;;33.55;18.20;;;;;;;11.12;100.00;99047.66;4992704;28;20489;-59
2022/10/14 00:53:29;;;;;;;32.63;17.73;;;;;;;11.15;100.00;99043.97;4982569;28;20474;-56
2022/10/14 00:56:18;;;;;;;27.83;18.10;;;;;;;11.21;100.00;99038.34;4973214;28;20122;-48
2022/10/14 00:59:05;;;;;;;30.35;17.88;;;;;;;11.35;100.00;99042.66;5004852;28;20112;-55
2022/10/14 01:01:50;;;;;;;32.78;19.15;;;;;;;11.21;100.00;99036.56;4993384;28;20042;-51
2022/10/14 01:04:39;;;;;;;33.55;19.15;;;;;;;11.21;100.00;99035.72;4983534;28;20160;-53
2022/10/14 01:07:35;;;;;;;31.55;18.27;;;;;;;11.03;100.00;99029.94;4994557;28;20085;-54
2022/10/14 01:10:35;;;;;;;32.67;18.90;;;;;;;11.31;100.00;99022.84;4997083;28;20069;-59
2022/10/14 01:13:23;;;;;;;31.05;18.65;;;;;;;11.21;100.00;99025.25;5009388;28;20049;-53
2022/10/14 01:16:25;;;;;;;34.97;19.23;;;;;;;11.13;100.00;99028.34;4990072;28;20057;-54
2022/10/14 01:19:46;;;;;;;29.50;18.40;;;;;;;11.18;100.00;99023.66;4977430;28;20116;-51
2022/10/14 01:22:40;;;;;;;31.00;18.83;;;;;;;10.96;100.00;99027.72;4996332;28;20125;-56
2022/10/14 01:25:33;;;;;;;33.70;18.73;;;;;;;10.89;100.00;99021.19;4996496;28;20475;-51
2022/10/14 01:28:28;;;;;;;31.70;18.20;;;;;;;10.94;100.00;99013.88;4984797;28;20073;-53
2022/10/14 01:31:18;;;;;;;36.10;21.02;;;;;;;10.90;100.00;99019.41;4989886;28;20483;-54
2022/10/14 01:34:07;;;;;;;32.33;18.52;;;;;;;11.02;100.00;99021.22;4993968;28;20033;-54
2022/10/14 01:37:01;;;;;;;33.65;18.80;;;;;;;10.96;100.00;99019.84;4991022;28;20126;-54
2022/10/14 01:39:54;;;;;;;30.08;19.30;;;;;;;10.74;100.00;99016.97;5000584;28;20050;-56
2022/10/14 01:42:42;;;;;;;33.60;20.00;;;;;;;10.81;100.00;99013.84;5003735;28;20078;-53
2022/10/14 01:45:30;;;;;;;35.38;19.60;;;;;;;10.74;100.00;99017.78;4985056;28;20039;-52
2022/10/14 01:48:21;;;;;;;35.10;19.52;;;;;;;10.71;100.00;99023.22;5003693;28;20486;-58
2022/10/14 01:51:17;;;;;;;32.53;19.23;;;;;;;10.62;100.00;99018.59;4986444;28;20034;-53
2022/10/14 01:54:08;;;;;;;33.20;19.20;;;;;;;10.62;100.00;99015.97;4984727;28;20501;-54
2022/10/14 01:56:58;;;;;;;32.08;18.85;;;;;;;10.58;100.00;99013.56;5007688;28;20095;-60
2022/10/14 01:59:44;;;;;;;33.63;19.05;;;;;;;10.62;100.00;99018.59;4975794;28;20045;-52
2022/10/14 02:02:29;;;;;;;32.70;18.08;;;;;;;10.55;100.00;99013.75;4989503;28;20038;-52
2022/10/14 02:05:53;;;;;;;33.97;19.83;;;;;;;10.59;100.00;99017.84;5007102;28;20038;-53
2022/10/14 02:08:52;;;;;;;34.88;18.75;;;;;;;10.71;100.00;99015.38;4928339;29;20114;-53
2022/10/14 02:11:46;;;;;;;32.25;18.65;;;;;;;10.67;100.00;99020.00;4927172;29;20126;-60
2022/10/14 02:14:49;;;;;;;31.80;17.88;;;;;;;10.86;100.00;99013.53;4925321;29;20530;-52
2022/10/14 02:17:56;;;;;;;33.38;18.65;;;;;;;10.72;100.00;99012.66;4913561;29;20522;-57
2022/10/14 02:20:55;;;;;;;33.25;18.45;;;;;;;10.90;100.00;99008.94;4928672;29;20103;-53
2022/10/14 02:23:48;;;;;;;32.80;18.60;;;;;;;10.94;100.00;99013.00;4928906;29;20044;-53
2022/10/14 02:26:37;;;;;;;28.92;17.92;;;;;;;10.85;100.00;99004.00;4928370;29;20424;-53
2022/10/14 02:29:24;;;;;;;34.70;18.02;;;;;;;10.91;100.00;99006.22;4915653;29;20095;-53
2022/10/14 02:32:13;;;;;;;33.20;18.90;;;;;;;10.94;100.00;99011.25;4928740;29;20430;-53
2022/10/14 02:35:00;;;;;;;30.08;17.98;;;;;;;11.01;100.00;99016.06;4916055;29;20046;-50
2022/10/14 02:37:47;;;;;;;29.77;18.20;;;;;;;11.01;100.00;99016.94;4913310;29;20147;-52
2022/10/14 02:40:42;;;;;;;30.88;17.98;;;;;;;10.87;100.00;99017.00;4911860;29;20476;-49
2022/10/14 02:43:27;;;;;;;37.10;19.15;;;;;;;10.72;100.00;99019.69;4916201;28;20095;-54
2022/10/14 02:46:12;;;;;;;33.83;20.15;;;;;;;10.70;100.00;99018.94;4984339;28;20077;-52
2022/10/14 02:48:57;;;;;;;31.95;19.00;;;;;;;10.72;100.00;99017.06;4995834;28;20077;-51
2022/10/14 02:51:42;;;;;;;29.55;17.05;;;;;;;10.96;100.00;99009.38;4992163;28;20042;-53
2022/10/14 02:54:28;;;;;;;34.60;18.58;;;;;;;11.11;100.00;99008.44;4989458;28;20393;-52
2022/10/14 02:57:15;;;;;;;30.08;18.40;;;;;;;10.98;100.00;99006.66;5001405;28;20042;-53
2022/10/14 03:00:00;;;;;;;30.17;18.15;;;;;;;10.79;100.00;98993.91;4989835;28;20168;-53
2022/10/14 03:02:45;;;;;;;32.42;17.45;;;;;;;10.76;100.00;99004.59;5009550;28;20120;-50
2022/10/14 03:05:33;;;;;;;33.28;18.08;;;;;;;10.53;100.00;99006.91;4990664;28;20073;-54
2022/10/14 03:08:18;;;;;;;34.63;18.27;;;;;;;10.71;100.00;99003.13;5004592;28;20128;-54
2022/10/14 03:11:04;;;;;;;32.50;17.38;;;;;;;10.95;100.00;99002.44;4988967;28;20038;-53
2022/10/14 03:13:49;;;;;;;32.38;19.23;;;;;;;10.94;100.00;99003.38;4989623;28;20054;-53
2022/10/14 03:16:34;;;;;;;34.10;18.75;;;;;;;10.87;100.00;99001.28;4998323;28;20069;-51
2022/10/14 03:19:18;;;;;;;31.42;18.00;;;;;;;10.71;100.00;99000.50;5013953;28;20064;-51
2022/10/14 03:22:06;;;;;;;34.83;19.05;;;;;;;10.77;100.00;99003.66;5015497;28;20509;-51
2022/10/14 03:24:53;;;;;;;33.22;18.80;;;;;;;10.65;100.00;99011.38;4978751;28;20565;-53
2022/10/14 03:27:46;;;;;;;29.75;17.15;;;;;;;10.90;100.00;99011.56;4988382;28;20125;-54
2022/10/14 03:30:32;;;;;;;29.10;18.17;;;;;;;10.64;100.00;99009.69;4980692;28;20161;-53
2022/10/14 03:33:23;;;;;;;34.88;19.75;;;;;;;10.79;100.00;99004.38;4990945;28;20095;-50
2022/10/14 03:36:12;;;;;;;34.53;19.25;;;;;;;10.58;100.00;99000.47;5004934;28;20038;-51
2022/10/14 03:39:03;;;;;;;36.97;20.08;;;;;;;10.53;100.00;99004.28;4987022;28;20179;-54
2022/10/14 03:41:56;;;;;;;35.67;18.60;;;;;;;10.55;100.00;99003.28;4975655;28;20030;-52
2022/10/14 03:44:50;;;;;;;33.08;18.85;;;;;;;10.41;100.00;98998.88;4988270;28;20125;-48
2022/10/14 03:47:44;;;;;;;32.67;18.88;;;;;;;10.57;100.00;98987.47;5009739;28;20058;-50
2022/10/14 03:50:29;;;;;;;33.70;18.40;;;;;;;10.53;100.00;98988.56;4994874;28;20061;-51
2022/10/14 03:53:15;;;;;;;36.10;19.08;;;;;;;10.42;100.00;98989.25;4988486;28;20058;-52
2022/10/14 03:56:02;;;;;;;33.28;19.33;;;;;;;10.27;100.00;98989.28;4985981;28;20034;-52
2022/10/14 03:58:48;;;;;;;32.72;19.48;;;;;;;10.23;100.00;98990.44;4987007;28;20038;-49
2022/10/14 04:01:32;;;;;;;33.92;19.15;;;;;;;10.35;100.00;98994.88;4976642;28;20077;-52
2022/10/14 04:04:46;;;;;;;32.33;18.50;;;;;;;10.41;100.00;98988.41;4990001;28;20411;-52
2022/10/14 04:07:33;;;;;;;37.95;19.70;;;;;;;10.21;100.00;98990.53;4995814;28;20046;-54
2022/10/14 04:10:18;;;;;;;37.85;19.17;;;;;;;10.29;100.00;98999.69;4988579;28;20046;-58
2022/10/14 04:13:08;;;;;;;33.75;18.35;;;;;;;10.58;100.00;99000.47;4995807;28;20115;-53
2022/10/14 04:15:55;;;;;;;35.08;18.50;;;;;;;10.54;100.00;98998.97;5012887;28;20048;-52
2022/10/14 04:18:45;;;;;;;32.75;18.88;;;;;;;10.67;100.00;98996.41;4996594;28;20037;-50
2022/10/14 04:21:33;;;;;;;35.75;19.38;;;;;;;10.62;100.00;99000.25;4990763;28;20042;-50
2022/10/14 04:24:18;;;;;;;32.90;18.90;;;;;;;10.60;100.00;99005.59;4981909;28;20093;-50
2022/10/14 04:27:17;;;;;;;30.88;17.77;;;;;;;11.25;100.00;99007.50;4990752;28;20045;-53
2022/10/14 04:30:27;;;;;;;41.30;21.05;;;;;;;10.68;100.00;99003.31;4993796;28;20065;-56
2022/10/14 04:33:13;;;;;;;34.45;17.75;;;;;;;10.65;100.00;98995.66;5004732;28;20109;-53
2022/10/14 04:36:00;;;;;;;32.42;18.30;;;;;;;10.59;100.00;98989.03;5005841;28;20545;-52
2022/10/14 04:38:52;;;;;;;34.75;19.15;;;;;;;10.26;100.00;98997.25;5003292;28;20068;-48
2022/10/14 04:41:37;;;;;;;30.85;19.30;;;;;;;10.23;100.00;98995.69;5006692;28;20036;-47
2022/10/14 04:44:21;;;;;;;33.00;20.08;;;;;;;10.19;100.00;98986.31;4992875;28;20042;-51
2022/10/14 04:47:11;;;;;;;36.40;19.75;;;;;;;10.26;100.00;98982.38;5008926;28;20069;-53
2022/10/14 04:49:55;;;;;;;34.40;19.58;;;;;;;10.22;100.00;98984.34;5011237;28;20041;-47
2022/10/14 04:52:40;;;;;;;38.22;20.52;;;;;;;10.18;100.00;98985.50;4998173;28;20453;-48
2022/10/14 04:55:29;;;;;;;32.10;19.45;;;;;;;10.29;100.00;98987.44;4982522;28;20060;-50
2022/10/14 04:58:15;;;;;;;30.27;18.10;;;;;;;10.34;100.00;99000.22;4986452;28;20038;-53
2022/10/14 05:01:02;;;;;;;34.53;20.40;;;;;;;10.40;100.00;98997.22;5002053;28;20042;-51
2022/10/14 05:03:52;;;;;;;30.02;17.40;;;;;;;11.14;100.00;98992.50;4993161;28;20042;-51
2022/10/14 05:06:37;;;;;;;32.63;19.35;;;;;;;11.01;100.00;98987.25;4990778;28;20042;-54
2022/10/14 05:09:24;;;;;;;39.33;20.33;;;;;;;10.45;100.00;98982.03;4978371;28;20162;-54
2022/10/14 05:12:10;;;;;;;30.77;18.92;;;;;;;10.12;100.00;98985.03;4990504;28;20061;-55
2022/10/14 05:15:04;;;;;;;31.65;16.63;;;;;;;10.95;100.00;98980.63;4988498;28;20081;-55
2022/10/14 05:17:55;;;;;;;33.75;18.65;;;;;;;10.95;100.00;98988.50;5004205;28;20117;-55
2022/10/14 05:20:46;;;;;;;32.27;17.17;;;;;;;11.21;100.00;98991.16;5003060;28;20069;-55
2022/10/14 05:23:31;;;;;;;29.00;16.73;;;;;;;11.28;100.00;98991.56;4988999;28;20467;-55
2022/10/14 05:26:17;;;;;;;31.95;19.27;;;;;;;10.75;100.00;98995.91;4984815;28;20109;-55
2022/10/14 05:29:03;;;;;;;25.63;13.95;;;;;;;10.76;100.00;99000.19;4989147;28;20069;-55
2022/10/14 05:31:48;;;;;;;31.70;18.88;;;;;;;10.62;100.00;99014.19;4978116;28;20113;-55
2022/10/14 05:34:54;;;;;;;31.98;18.95;;;;;;;10.28;100.00;99008.47;5003867;28;20089;-56
2022/10/14 05:37:55;;;;;;;30.05;16.45;;;;;;;11.29;100.00;99014.22;4986832;28;20046;-57
2022/10/14 05:40:39;;;;;;;25.30;13.65;;;;;;;12.75;100.00;99007.63;4987795;28;20084;-52
2022/10/14 05:43:25;;;;;;;27.88;16.77;;;;;;;13.38;100.00;99017.00;4985612;28;20388;-54
2022/10/14 05:46:10;;;;;;;30.35;15.52;;;;;;;13.41;100.00;99020.25;5000178;28;20453;-51
2022/10/14 05:49:01;;;;;;;20.00;11.35;;;;;;;13.46;100.00;99019.03;5007584;28;20037;-55
2022/10/14 05:51:46;;;;;;;25.67;15.27;;;;;;;13.70;100.00;99020.75;4989696;28;20501;-54
2022/10/14 05:54:37;;;;;;;30.77;16.65;;;;;;;13.52;100.00;99026.50;4992228;28;20446;-55
2022/10/14 05:57:24;;;;;;;24.13;13.38;;;;;;;13.53;100.00;99028.19;5002413;28;21113;-54
2022/10/14 06:00:09;;;;;;;28.27;17.38;;;;;;;12.74;100.00;99030.44;4992213;28;20068;-53
2022/10/14 06:03:01;;;;;;;18.90;11.75;;;;;;;13.12;100.00;99031.16;4989905;28;20113;-55
2022/10/14 06:05:47;;;;;;;21.67;13.20;;;;;;;13.60;100.00;99029.38;4976062;28;20076;-52
2022/10/14 06:08:32;;;;;;;27.13;16.02;;;;;;;13.38;100.00;99032.78;4993884;28;20097;-57
2022/10/14 06:11:17;;;;;;;23.08;13.13;;;;;;;13.39;100.00;99037.94;4993484;28;20041;-53
2022/10/14 06:14:01;;;;;;;23.45;12.77;;;;;;;13.74;100.00;99040.66;4991315;28;20046;-56
2022/10/14 06:16:50;;;;;;;27.02;15.45;;;;;;;13.70;99.92;99045.31;4987298;28;20049;-53
2022/10/14 06:19:34;;;;;;;31.70;16.35;;;;;;;13.10;98.08;99050.66;4984959;28;20049;-54
2022/10/14 06:22:20;;;;;;;20.38;12.40;;;;;;;13.96;100.00;99055.59;4995758;28;20046;-54
2022/10/14 06:25:04;;;;;;;21.48;12.48;;;;;;;13.74;100.00;99057.25;4993028;28;20050;-55
2022/10/14 06:27:49;;;;;;;23.98;13.18;;;;;;;14.22;95.61;99063.25;5008262;28;20129;-53
2022/10/14 06:30:34;;;;;;;30.90;18.50;;;;;;;13.98;89.90;99071.28;4990308;28;20045;-54
2022/10/14 06:33:20;;;;;;;24.92;14.90;;;;;;;14.62;97.03;99075.00;4992450;28;20066;-55
2022/10/14 06:36:05;;;;;;;23.98;14.23;;;;;;;14.59;92.86;99085.00;4995626;28;20061;-55
2022/10/14 06:38:50;;;;;;;33.58;18.40;;;;;;;13.47;92.84;99092.63;4993487;28;20056;-58
2022/10/14 06:41:35;;;;;;;28.13;15.07;;;;;;;13.89;93.16;99091.25;4994177;28;20069;-57
2022/10/14 06:44:20;;;;;;;21.88;12.90;;;;;;;14.37;99.82;99095.47;4989957;28;20433;-52
2022/10/14 06:47:05;;;;;;;27.08;14.50;;;;;;;15.43;90.02;99101.13;4993380;28;20505;-56
2022/10/14 06:49:50;;;;;;;23.73;13.73;;;;;;;15.20;89.17;99104.72;4989464;28;20442;-54
2022/10/14 06:52:35;;;;;;;23.70;14.63;;;;;;;15.01;90.34;99103.56;4992114;28;20042;-57
2022/10/14 06:55:19;;;;;;;33.80;18.08;;;;;;;14.03;83.42;99101.59;4989692;28;20036;-54
2022/10/14 06:58:04;;;;;;;43.10;20.15;;;;;;;13.88;89.64;99100.13;4986537;28;20113;-51
2022/10/14 07:00:49;;;;;;;38.13;20.77;;;;;;;12.63;89.25;99102.19;4990063;28;20038;-55
2022/10/14 07:03:35;;;;;;;38.60;20.27;;;;;;;11.57;97.17;99104.19;4997159;28;20041;-53
2022/10/14 07:06:21;;;;;;;36.67;19.60;;;;;;;11.09;100.00;99102.94;5000633;28;20069;-53
2022/10/14 07:09:05;;;;;;;44.38;23.48;;;;;;;10.95;100.00;99095.97;4992793;28;20474;-52
2022/10/14 07:11:50;;;;;;;41.10;22.15;;;;;;;10.88;100.00;99095.53;4993509;28;20084;-53
2022/10/14 07:14:34;;;;;;;41.65;22.35;;;;;;;10.70;100.00;99093.16;4990132;28;20050;-53
2022/10/14 07:17:19;;;;;;;39.72;21.48;;;;;;;10.86;100.00;99102.63;4996989;28;20041;-54
2022/10/14 07:20:04;;;;;;;41.80;20.42;;;;;;;11.10;100.00;99099.34;4991665;28;20088;-50
2022/10/14 07:22:54;;;;;;;41.33;21.90;;;;;;;11.29;100.00;99101.59;5001833;28;20065;-54
2022/10/14 07:25:39;;;;;;;43.55;22.38;;;;;;;11.20;100.00;99095.19;4992565;28;20041;-53
2022/10/14 07:28:23;;;;;;;40.47;22.73;;;;;;;10.93;100.00;99103.94;5000135;28;20072;-56
2022/10/14 07:31:09;;;;;;;47.50;24.55;;;;;;;10.98;100.00;99103.63;4994749;28;20052;-54
2022/10/14 07:33:54;;;;;;;38.95;21.38;;;;;;;11.38;100.00;99107.19;4988316;28;20528;-55
2022/10/14 07:36:39;;;;;;;45.90;21.58;;;;;;;11.66;100.00;99113.19;5007616;28;20046;-52
2022/10/14 07:39:24;;;;;;;43.53;22.38;;;;;;;12.22;100.00;99104.19;5014602;28;20118;-56
2022/10/14 07:42:09;;;;;;;40.92;21.88;;;;;;;12.13;100.00;99103.03;5009946;28;20100;-57
2022/10/14 07:44:56;;;;;;;41.53;21.35;;;;;;;12.43;99.51;99101.84;5009747;28;20046;-55
2022/10/14 07:47:47;;;;;;;37.28;20.85;;;;;;;12.47;98.52;99099.81;4992676;28;20114;-56
2022/10/14 07:50:32;;;;;;;39.03;20.00;;;;;;;12.34;99.21;99102.47;4998669;28;20116;-55
2022/10/14 07:53:18;;;;;;;36.15;20.42;;;;;;;12.42;99.46;99101.97;4988417;28;20046;-54
2022/10/14 07:56:03;;;;;;;40.55;20.60;;;;;;;12.55;96.03;99107.16;4990917;28;20041;-56
2022/10/14 07:58:48;;;;;;;33.45;19.27;;;;;;;12.62;96.49;99105.78;4988520;28;20039;-55
2022/10/14 08:01:33;;;;;;;34.08;18.27;;;;;;;12.85;95.17;99099.78;4989627;28;20443;-57
2022/10/14 08:04:19;;;;;;;39.38;18.67;;;;;;;12.92;94.21;99101.03;4989970;28;20520;-57
2022/10/14 08:07:04;;;;;;;36.78;19.23;;;;;;;12.64;95.57;99095.16;4990314;28;20077;-53
2022/10/14 08:09:48;;;;;;;40.15;19.20;;;;;;;12.77;96.20;99088.06;4989347;28;20039;-58
2022/10/14 08:12:34;;;;;;;45.95;23.50;;;;;;;12.97;95.53;99095.44;4986902;28;20113;-57
2022/10/14 08:15:18;;;;;;;38.40;20.35;;;;;;;13.13;94.10;99089.88;4994988;28;20045;-57
2022/10/14 08:18:04;;;;;;;39.22;20.33;;;;;;;13.58;91.30;99080.47;4994881;28;20113;-58
2022/10/14 08:20:49;;;;;;;41.42;21.67;;;;;;;13.77;91.69;99085.16;4990217;28;20041;-59
2022/10/14 08:23:34;;;;;;;38.70;21.15;;;;;;;14.07;88.49;99080.28;4988105;28;20066;-53
2022/10/14 08:26:20;;;;;;;39.22;20.70;;;;;;;13.57;88.86;99079.63;4989089;28;20045;-57
2022/10/14 08:29:09;;;;;;;35.40;19.38;;;;;;;13.61;90.56;99074.97;4989298;28;20050;-56
2022/10/14 08:31:54;;;;;;;37.42;20.55;;;;;;;14.67;92.61;99074.69;4991666;28;20126;-60
2022/10/14 08:34:39;;;;;;;34.42;20.35;;;;;;;14.44;85.05;99076.50;4997300;28;20064;-60
2022/10/14 08:37:23;;;;;;;35.10;17.85;;;;;;;14.83;87.10;99074.28;4987135;28;20034;-54
2022/10/14 08:40:14;;;;;;;35.90;17.67;;;;;;;15.09;82.67;99068.66;4990378;28;20049;-54
2022/10/14 08:43:22;;;;;;;37.10;18.30;;;;;;;15.00;83.44;99078.16;4989265;28;20134;-56
2022/10/14 08:46:22;;;;;;;33.03;16.77;;;;;;;15.85;81.24;99060.63;4990046;28;20041;-54
2022/10/14 08:49:18;;;;;;;30.42;16.83;;;;;;;18.42;80.93;99054.38;4982968;28;20045;-50
2022/10/14 08:52:11;;;;;;;30.10;16.17;;;;;;;18.50;69.56;99059.78;4988204;28;20176;-61
2022/10/14 08:55:03;;;;;;;25.73;13.77;;;;;;;17.89;71.47;99065.47;4992677;28;20041;-63
2022/10/14 08:57:55;;;;;;;;;;;;;;;17.59;73.77;99062.09;5002194;28;20038;-63
2022/10/14 09:00:48;;;;;;;24.30;12.85;;;;;;;17.43;74.32;99062.72;4990823;28;20366;-61
2022/10/14 09:03:35;;;;;;;25.52;14.10;;;;;;;17.07;75.88;99072.03;4990945;28;20076;-63
2022/10/14 09:06:25;;;;;;;33.45;16.40;;;;;;;17.44;72.03;99064.38;4990483;28;20065;-64
2022/10/14 09:09:34;;;;;;;31.13;14.65;;;;;;;17.13;74.73;99057.44;4986657;28;20457;-63
2022/10/14 09:12:23;;;;;;;20.63;10.35;;;;;;;16.68;79.35;99064.09;4986942;28;20100;-63
2022/10/14 09:15:28;;;;;;;24.45;12.60;;;;;;;16.24;79.35;99073.19;4987568;28;20124;-63
2022/10/14 09:18:26;;;;;;;23.15;12.43;;;;;;;16.18;80.38;99066.63;4990275;28;20116;-61
2022/10/14 09:21:23;;;;;;;23.52;12.35;;;;;;;16.46;79.33;99055.44;4996470;28;20072;-60
2022/10/14 09:24:12;;;;;;;23.48;12.35;;;;;;;16.20;80.95;99072.63;4991534;28;20188;-60
2022/10/14 09:27:03;;;;;;;23.17;11.10;;;;;;;16.51;78.99;99077.00;4994586;28;20042;-61
2022/10/14 09:29:50;;;;;;;26.70;11.68;;;;;;;16.58;79.72;99072.84;4994301;28;20039;-61
2022/10/14 09:32:42;;;;;;;25.02;13.82;;;;;;;16.54;78.64;99073.25;4994555;28;20030;-62
2022/10/14 09:35:41;;;;;;;33.67;16.55;;;;;;;17.04;75.36;99058.25;4993601;28;20049;-61
2022/10/14 09:38:26;;;;;;;34.08;15.93;;;;;;;17.53;73.23;99049.44;4990971;28;20465;-61
2022/10/14 09:41:14;;;;;;;28.13;12.95;;;;;;;18.09;72.78;99055.66;4993088;28;20117;-62
2022/10/14 09:44:21;;;;;;;28.60;13.77;;;;;;;18.37;72.10;99059.28;4991078;28;20113;-62
2022/10/14 09:47:12;;;;;;;22.75;10.40;;;;;;;18.28;72.15;99067.16;4990786;28;20486;-63
2022/10/14 09:49:59;;;;;;;25.20;12.65;;;;;;;17.77;71.83;99078.09;4993806;28;20070;-63
2022/10/14 09:52:51;;;;;;;26.90;12.85;;;;;;;17.96;72.70;99066.59;4992692;28;20117;-61
2022/10/14 09:55:45;;;;;;;25.20;12.70;;;;;;;17.96;72.34;99079.84;4985006;28;20525;-63
2022/10/14 09:58:46;;;;;;;25.00;12.82;;;;;;;17.60;73.15;99083.16;4988520;28;20034;-62
2022/10/14 10:01:40;;;;;;;25.00;11.23;;;;;;;17.54;73.98;99081.09;4989681;28;20054;-63
2022/10/14 10:04:26;;;;;;;26.02;12.95;;;;;;;17.36;74.70;99086.25;5000345;28;20041;-62
2022/10/14 10:07:32;;;;;;;21.00;10.63;;;;;;;17.51;73.83;99077.88;4991337;28;20117;-62
2022/10/14 10:10:20;;;;;;;24.20;12.27;;;;;;;18.62;70.28;99083.44;4995830;28;20034;-63
2022/10/14 10:13:30;;;;;;;30.50;14.88;;;;;;;19.15;65.67;99081.78;4989770;28;20113;-62
2022/10/14 10:16:26;;;;;;;23.45;11.50;;;;;;;19.42;65.76;99080.00;4991543;28;20058;-63
2022/10/14 10:19:33;;;;;;;23.42;10.98;;;;;;;20.65;62.58;99079.06;4989571;28;20034;-63
2022/10/14 10:22:17;;;;;;;17.63;8.75;;;;;;;20.54;62.72;99070.41;4995626;28;20370;-64
2022/10/14 10:25:03;;;;;;;16.38;8.95;;;;;;;20.78;61.91;99075.94;4993440;28;20513;-65
2022/10/14 10:27:48;;;;;;;17.80;9.35;;;;;;;20.66;61.62;99068.25;5004009;28;20049;-63
2022/10/14 10:30:58;;;;;;;16.98;8.55;;;;;;;21.74;59.28;99071.94;4992325;28;20117;-64
2022/10/14 10:33:59;;;;;;;17.90;10.30;;;;;;;22.30;56.21;99063.06;4993120;28;20125;-63
2022/10/14 10:36:51;;;;;;;20.88;11.85;;;;;;;22.24;56.75;99064.59;4992992;28;20053;-64
2022/10/14 10:40:19;;;;;;;17.50;10.00;;;;;;;21.39;57.89;99070.31;4991706;28;20037;-64
2022/10/14 10:43:20;;;;;;;16.38;8.48;;;;;;;20.74;60.58;99063.97;4909928;29;20052;-63
2022/10/14 10:46:27;;;;;;;14.73;8.35;;;;;;;20.00;61.09;99068.03;4913243;29;20059;-63
2022/10/14 10:49:29;;;;;;;22.95;10.60;;;;;;;19.77;61.51;99060.59;4914953;29;20595;-64
2022/10/14 10:52:29;;;;;;;19.25;9.57;;;;;;;20.12;62.95;99053.50;4918627;29;20039;-63
2022/10/14 10:55:14;;;;;;;24.52;11.40;;;;;;;19.27;61.87;99057.66;4934088;29;20548;-65
2022/10/14 10:58:18;;;;;;;20.33;10.38;;;;;;;20.59;58.70;99042.47;4919155;29;20072;-64
2022/10/14 11:01:30;;;;;;;24.33;11.85;;;;;;;21.21;58.47;99046.53;4912876;29;20456;-64
2022/10/14 11:05:06;;;;;;;14.52;8.35;;;;;;;20.24;63.56;99043.41;4918076;29;20063;-63
2022/10/14 11:14:49;;;;;;;19.17;9.43;;;;;;;18.74;66.09;99037.13;4911089;29;20084;-64
2022/10/14 11:17:48;;;;;;;20.50;9.45;;;;;;;17.81;67.37;99034.41;4913900;29;20061;-62
2022/10/14 11:21:01;;;;;;;17.70;9.43;;;;;;;18.31;68.26;99035.03;4938773;29;20126;-62
2022/10/14 11:24:07;;;;;;;15.95;7.93;;;;;;;17.97;69.51;99033.78;4932968;29;20092;-63
2022/10/14 11:27:04;;;;;;;11.85;6.95;;;;;;;18.00;70.21;99035.31;4934519;29;20495;-62
2022/10/14 11:30:13;;;;;;;15.73;7.82;;;;;;;18.78;67.42;99025.22;4939821;29;20453;-62
2022/10/14 11:33:23;;;;;;;12.65;7.30;;;;;;;19.24;66.30;99028.75;4931309;29;20375;-63
2022/10/14 11:36:23;;;;;;;15.73;9.35;;;;;;;19.23;62.49;99016.44;4927932;29;20123;-63
2022/10/14 11:39:43;;;;;;;14.88;7.53;;;;;;;19.58;64.43;99023.47;4933735;29;20047;-63
2022/10/14 11:42:57;;;;;;;10.30;6.57;;;;;;;20.14;64.40;99021.44;4953628;28;20039;-63
2022/10/14 11:46:05;;;;;;;12.00;6.03;;;;;;;20.24;61.99;99018.66;4988778;28;20057;-63
2022/10/14 11:48:50;;;;;;;13.80;7.03;;;;;;;19.86;62.26;99014.50;4987683;28;20066;-63
2022/10/14 11:51:50;;;;;;;16.67;7.88;;;;;;;20.23;62.15;98999.19;4990022;28;20500;-63
2022/10/14 11:54:37;;;;;;;13.75;7.13;;;;;;;20.31;61.22;98999.22;4987693;28;20057;-62
2022/10/14 11:57:40;;;;;;;14.82;7.05;;;;;;;20.09;60.45;98997.97;4989906;28;20038;-62
2022/10/14 12:00:28;;;;;;;13.45;6.75;;;;;;;19.69;63.39;99001.13;4979000;28;20121;-63
2022/10/14 12:03:25;;;;;;;12.40;7.35;;;;;;;19.38;61.50;98998.13;4986003;28;20525;-62
2022/10/14 12:06:20;;;;;;;12.88;7.13;;;;;;;18.96;63.46;98997.84;4992630;28;20034;-62
2022/10/14 12:09:18;;;;;;;14.32;6.95;;;;;;;18.95;65.41;99004.09;4989855;28;20037;-62
2022/10/14 12:12:07;;;;;;;9.32;5.70;;;;;;;19.00;65.17;98999.19;4990792;28;20077;-62
2022/10/14 12:15:06;;;;;;;13.48;6.07;;;;;;;18.95;64.76;98996.16;4991147;28;20169;-63
2022/10/14 12:18:00;;;;;;;13.52;7.35;;;;;;;18.73;64.60;98997.47;4993377;28;20045;-62
2022/10/14 12:20:59;;;;;;;11.52;7.07;;;;;;;18.78;65.68;98993.38;4989574;28;20037;-62
2022/10/14 12:23:52;;;;;;;12.38;6.63;;;;;;;18.93;64.04;98985.69;4982608;28;20062;-62
2022/10/14 12:26:48;;;;;;;12.98;6.78;;;;;;;18.92;65.55;98992.00;4987953;28;20030;-62
2022/10/14 12:29:41;;;;;;;10.80;5.20;;;;;;;19.02;64.86;98985.75;4992774;28;20389;-62
2022/10/14 12:32:30;;;;;;;12.85;6.95;;;;;;;19.01;66.45;98992.91;4994422;28;20029;-62
2022/10/14 12:35:58;;;;;;;13.00;8.13;;;;;;;18.91;65.57;98982.38;4988959;28;20030;-62
2022/10/14 12:39:15;;;;;;;17.58;9.55;;;;;;;18.89;66.25;98980.84;4939536;29;20134;-61
2022/10/14 12:42:09;;;;;;;17.65;8.70;;;;;;;18.66;65.82;98973.34;4936642;29;20039;-62
2022/10/14 12:44:57;;;;;;;9.85;5.43;;;;;;;18.80;66.50;98972.00;4936735;29;20558;-61
2022/10/14 12:47:42;;;;;;;13.02;6.97;;;;;;;19.19;65.21;98978.78;4937445;29;20043;-63
2022/10/14 12:50:36;;;;;;;14.93;8.25;;;;;;;19.31;64.75;98976.66;4933847;29;20043;-62
2022/10/14 12:53:23;;;;;;;15.70;9.15;;;;;;;19.38;63.04;98961.78;4934108;29;20047;-61
2022/10/14 12:56:10;;;;;;;11.55;7.40;;;;;;;19.30;65.00;98969.69;4938916;28;20339;-63
2022/10/14 12:59:00;;;;;;;11.68;6.50;;;;;;;19.47;64.59;98956.53;4938767;29;20475;-62
2022/10/14 13:01:45;;;;;;;14.48;8.15;;;;;;;19.35;62.81;98953.28;4937402;29;20129;-62
2022/10/14 13:04:30;;;;;;;14.77;6.97;;;;;;;18.93;65.20;98956.50;4941167;29;20126;-63
2022/10/14 13:07:15;;;;;;;11.68;6.45;;;;;;;19.32;61.92;98954.47;4923623;29;20601;-63
2022/10/14 13:10:37;;;;;;;11.20;6.35;;;;;;;20.74;58.56;98955.69;4958750;28;20443;-62